createdAt,value
2023-04-24T00:01:02.445Z,99953.91
2023-04-24T00:03:31.340Z,99945.53
2023-04-24T00:06:00.318Z,99945.22
2023-04-24T00:08:28.757Z,99940.06
2023-04-24T00:10:57.475Z,99939.22
2023-04-24T00:13:25.923Z,99931.53
2023-04-24T00:15:54.748Z,99933.38
2023-04-24T00:18:23.265Z,99928.38
2023-04-24T00:20:52.154Z,99926.38
2023-04-24T00:23:20.579Z,99919.19
2023-04-24T00:25:49.308Z,99924.69
2023-04-24T00:28:17.629Z,99917.69
2023-04-24T00:30:46.618Z,99914.84
2023-04-24T00:33:15.044Z,99904.50
2023-04-24T00:35:43.864Z,99896.50
2023-04-24T00:38:13.116Z,99892.28
2023-04-24T00:40:41.903Z,99892.81
2023-04-24T00:43:11.124Z,99890.47
2023-04-24T00:45:40.093Z,99890.47
2023-04-24T00:48:08.763Z,99882.31
2023-04-24T00:50:40.536Z,99881.44
2023-04-24T00:53:08.969Z,99878.13
2023-04-24T00:55:38.629Z,99881.28
2023-04-24T00:58:06.996Z,99874.78
2023-04-24T01:00:36.269Z,99874.94
2023-04-24T01:03:07.255Z,99867.44
2023-04-24T01:05:36.200Z,99873.59
2023-04-24T01:08:04.587Z,99874.47
2023-04-24T01:10:33.509Z,99873.78
2023-04-24T01:13:01.972Z,99872.44
2023-04-24T01:15:30.952Z,99869.44
2023-04-24T01:17:59.449Z,99865.78
2023-04-24T01:20:28.228Z,99857.25
2023-04-24T01:22:58.000Z,99862.44
2023-04-24T01:25:27.080Z,99857.25
2023-04-24T01:27:56.009Z,99855.06
2023-04-24T01:30:24.821Z,99848.75
2023-04-24T01:32:53.481Z,99836.88
2023-04-24T01:35:22.601Z,99837.06
2023-04-24T01:37:51.352Z,99841.91
2023-04-24T01:40:19.936Z,99834.72
2023-04-24T01:42:48.346Z,99834.72
2023-04-24T01:45:17.037Z,99833.22
2023-04-24T01:47:45.440Z,99828.88
2023-04-24T01:50:14.242Z,99832.06
2023-04-24T01:52:42.738Z,99822.72
2023-04-24T01:55:12.427Z,99823.72
2023-04-24T01:57:40.856Z,99818.53
2023-04-24T02:00:13.266Z,99822.34
2023-04-24T02:02:43.692Z,99824.72
2023-04-24T02:05:13.783Z,99833.38
2023-04-24T02:07:42.215Z,99833.03
2023-04-24T02:10:11.923Z,99829.22
2023-04-24T02:12:44.566Z,99827.38
2023-04-24T02:15:13.577Z,99831.19
2023-04-24T02:17:42.107Z,99829.69
2023-04-24T02:20:11.290Z,99834.03
2023-04-24T02:22:40.539Z,99830.03
2023-04-24T02:25:10.064Z,99838.53
2023-04-24T02:27:38.492Z,99839.78
2023-04-24T02:30:09.387Z,99838.63
2023-04-24T02:32:37.811Z,99821.97
2023-04-24T02:35:07.573Z,99817.69
2023-04-24T02:37:36.136Z,99813.69
2023-04-24T02:40:07.171Z,99809.66
2023-04-24T02:42:35.765Z,99818.19
2023-04-24T02:45:04.932Z,99818.03
2023-04-24T02:47:33.378Z,99817.19
2023-04-24T02:50:04.264Z,99818.69
2023-04-24T02:52:32.639Z,99805.34
2023-04-24T02:55:01.661Z,99800.00
2023-04-24T02:57:30.037Z,99804.50
2023-04-24T02:59:58.744Z,99805.34
2023-04-24T03:02:27.317Z,99811.38
2023-04-24T03:04:56.613Z,99805.66
2023-04-24T03:07:25.283Z,99803.34
2023-04-24T03:09:54.323Z,99810.34
2023-04-24T03:12:25.013Z,99806.84
2023-04-24T03:14:53.811Z,99803.34
2023-04-24T03:17:22.174Z,99807.00
2023-04-24T03:19:51.067Z,99802.19
2023-04-24T03:22:20.135Z,99802.03
2023-04-24T03:24:49.258Z,99805.84
2023-04-24T03:27:20.057Z,99802.34
2023-04-24T03:29:56.795Z,99817.00
2023-04-24T03:32:35.678Z,99812.34
2023-04-24T03:35:06.231Z,99809.50
2023-04-24T03:37:34.813Z,99793.66
2023-04-24T03:40:21.567Z,99787.34
2023-04-24T03:42:49.971Z,99785.66
2023-04-24T03:45:19.857Z,99784.16
2023-04-24T03:47:51.700Z,99786.81
2023-04-24T03:50:20.621Z,99786.31
2023-04-24T03:52:49.894Z,99803.00
2023-04-24T03:55:28.993Z,99801.00
2023-04-24T03:57:57.517Z,99796.84
2023-04-24T04:00:27.274Z,99800.16
2023-04-24T04:03:11.930Z,99798.66
2023-04-24T04:05:41.263Z,99808.19
2023-04-24T04:08:09.743Z,99808.19
2023-04-24T04:10:38.528Z,99815.38
2023-04-24T04:13:07.922Z,99812.69
2023-04-24T04:15:37.843Z,99821.38
2023-04-24T04:18:06.746Z,99811.69
2023-04-24T04:20:35.665Z,99817.00
2023-04-24T04:23:04.125Z,99816.19
2023-04-24T04:25:51.412Z,99817.31
2023-04-24T04:28:22.763Z,99812.00
2023-04-24T04:30:55.151Z,99826.03
2023-04-24T04:33:27.155Z,99819.84
2023-04-24T04:35:58.152Z,99829.69
2023-04-24T04:38:31.431Z,99825.34
2023-04-24T04:41:13.547Z,99826.34
2023-04-24T04:43:44.057Z,99844.88
2023-04-24T04:46:13.371Z,99849.34
2023-04-24T04:49:02.562Z,99851.16
2023-04-24T04:51:32.504Z,99863.28
2023-04-24T04:54:01.355Z,99878.34
2023-04-24T04:56:30.233Z,99879.84
2023-04-24T04:59:01.607Z,99868.16
2023-04-24T05:01:30.913Z,99838.44
2023-04-24T05:03:59.728Z,99851.59
2023-04-24T05:06:29.099Z,99834.78
2023-04-24T05:08:58.463Z,99846.63
2023-04-24T05:11:40.549Z,99860.56
2023-04-24T05:14:08.933Z,99851.13
2023-04-24T05:16:41.469Z,99843.78
2023-04-24T05:19:13.072Z,99849.00
2023-04-24T05:21:43.354Z,99855.66
2023-04-24T05:24:12.922Z,99859.88
2023-04-24T05:27:10.693Z,99857.19
2023-04-24T05:29:42.608Z,99858.69
2023-04-24T05:32:12.234Z,99862.88
2023-04-24T05:34:41.092Z,99858.38
2023-04-24T05:37:11.459Z,99842.38
2023-04-24T05:39:40.334Z,99828.88
2023-04-24T05:42:09.339Z,99820.00
2023-04-24T05:44:37.868Z,99820.00
2023-04-24T05:47:07.164Z,99820.84
2023-04-24T05:49:35.670Z,99812.66
2023-04-24T05:52:06.822Z,99824.66
2023-04-24T05:54:35.966Z,99833.19
2023-04-24T05:57:08.716Z,99830.50
2023-04-24T05:59:51.470Z,99818.00
2023-04-24T06:02:22.741Z,99812.34
2023-04-24T06:04:52.629Z,99815.69
2023-04-24T06:07:21.608Z,99821.72
2023-04-24T06:09:50.124Z,99837.28
2023-04-24T06:12:19.219Z,99836.44
2023-04-24T06:15:05.556Z,99843.50
2023-04-24T06:17:54.544Z,99850.50
2023-04-24T06:20:23.244Z,99849.88
2023-04-24T06:22:52.066Z,99855.94
2023-04-24T06:25:20.706Z,99860.78
2023-04-24T06:27:49.410Z,99850.78
2023-04-24T06:30:17.808Z,99845.28
2023-04-24T06:32:46.868Z,99845.97
2023-04-24T06:35:17.676Z,99848.31
2023-04-24T06:37:46.828Z,99848.31
2023-04-24T06:40:15.416Z,99844.47
2023-04-24T06:42:44.168Z,99860.50
2023-04-24T06:45:12.704Z,99863.97
2023-04-24T06:47:41.551Z,99871.16
2023-04-24T06:50:10.583Z,99870.97
2023-04-24T06:52:39.303Z,99873.47
2023-04-24T06:55:08.687Z,99868.28
2023-04-24T06:57:37.586Z,99862.59
2023-04-24T07:00:07.985Z,99860.25
2023-04-24T07:02:36.894Z,99852.94
2023-04-24T07:05:06.527Z,99845.06
2023-04-24T07:07:35.901Z,99835.94
2023-04-24T07:10:05.528Z,99829.94
2023-04-24T07:12:34.230Z,99828.91
2023-04-24T07:15:03.089Z,99818.75
2023-04-24T07:17:31.909Z,99811.25
2023-04-24T07:20:00.491Z,99809.25
2023-04-24T07:22:29.241Z,99807.06
2023-04-24T07:24:57.669Z,99817.56
2023-04-24T07:27:27.072Z,99807.44
2023-04-24T07:29:55.785Z,99807.25
2023-04-24T07:32:24.620Z,99808.91
2023-04-24T07:34:53.062Z,99808.91
2023-04-24T07:37:22.288Z,99815.28
2023-04-24T07:39:50.739Z,99814.25
2023-04-24T07:42:19.830Z,99817.78
2023-04-24T07:44:49.033Z,99815.97
2023-04-24T07:47:18.042Z,99827.69
2023-04-24T07:49:46.552Z,99827.19
2023-04-24T07:52:15.224Z,99822.59
2023-04-24T07:54:44.320Z,99828.09
2023-04-24T07:57:13.564Z,99828.25
2023-04-24T07:59:42.222Z,99831.63
2023-04-24T08:02:11.259Z,99829.28
2023-04-24T08:04:40.010Z,99832.78
2023-04-24T08:07:09.392Z,99830.63
2023-04-24T08:09:37.963Z,99835.34
2023-04-24T08:12:06.977Z,99846.69
2023-04-24T08:14:35.478Z,99845.69
2023-04-24T08:17:04.601Z,99845.03
2023-04-24T08:19:33.013Z,99833.53
2023-04-24T08:22:01.931Z,99840.69
2023-04-24T08:24:30.316Z,99836.34
2023-04-24T08:26:59.379Z,99836.34
2023-04-24T08:29:27.990Z,99822.66
2023-04-24T08:31:57.099Z,99833.03
2023-04-24T08:34:25.631Z,99842.38
2023-04-24T08:36:54.460Z,99844.69
2023-04-24T08:39:23.085Z,99845.03
2023-04-24T08:41:51.985Z,99838.22
2023-04-24T08:44:21.166Z,99847.72
2023-04-24T08:46:50.420Z,99848.50
2023-04-24T08:49:19.134Z,99847.13
2023-04-24T08:51:48.887Z,99850.69
2023-04-24T08:54:17.451Z,99859.88
2023-04-24T08:56:46.758Z,99862.50
2023-04-24T08:59:18.267Z,99865.19
2023-04-24T09:01:47.257Z,99859.03
2023-04-24T09:04:17.665Z,99864.28
2023-04-24T09:06:47.465Z,99874.97
2023-04-24T09:09:15.821Z,99870.25
2023-04-24T09:11:44.693Z,99884.56
2023-04-24T09:14:13.248Z,99880.13
2023-04-24T09:16:42.107Z,99883.09
2023-04-24T09:19:10.823Z,99881.06
2023-04-24T09:21:39.964Z,99884.31
2023-04-24T09:24:18.821Z,99890.63
2023-04-24T09:26:48.023Z,99888.75
2023-04-24T09:29:18.105Z,99875.81
2023-04-24T09:31:47.516Z,99877.19
2023-04-24T09:34:16.220Z,99874.59
2023-04-24T09:36:45.427Z,99871.94
2023-04-24T09:39:16.987Z,99884.25
2023-04-24T09:41:51.908Z,99875.34
2023-04-24T09:44:22.246Z,99869.81
2023-04-24T09:47:01.844Z,99870.69
2023-04-24T09:49:31.990Z,99867.81
2023-04-24T09:52:11.180Z,99876.09
2023-04-24T09:54:41.429Z,99870.91
2023-04-24T09:57:10.690Z,99877.63
2023-04-24T09:59:45.544Z,99875.66
2023-04-24T10:02:21.390Z,99879.72
2023-04-24T10:04:57.953Z,99885.34
2023-04-24T10:07:30.224Z,99881.56
2023-04-24T10:09:58.792Z,99870.38
2023-04-24T10:12:28.272Z,99876.59
2023-04-24T10:14:56.889Z,99876.28
2023-04-24T10:17:26.028Z,99867.56
2023-04-24T10:19:54.469Z,99867.09
2023-04-24T10:22:23.161Z,99875.97
2023-04-24T10:24:51.635Z,99878.38
2023-04-24T10:27:21.009Z,99882.38
2023-04-24T10:29:49.490Z,99879.16
2023-04-24T10:32:18.168Z,99873.81
2023-04-24T10:34:46.717Z,99878.63
2023-04-24T10:37:15.608Z,99878.72
2023-04-24T10:39:44.186Z,99879.53
2023-04-24T10:42:17.180Z,99885.47
2023-04-24T10:44:45.822Z,99896.44
2023-04-24T10:47:15.654Z,99884.03
2023-04-24T10:49:44.424Z,99890.38
2023-04-24T10:52:13.418Z,99884.88
2023-04-24T10:54:48.850Z,99891.09
2023-04-24T10:57:20.961Z,99887.06
2023-04-24T10:59:51.876Z,99891.84
2023-04-24T11:02:21.452Z,99886.78
2023-04-24T11:04:51.053Z,99888.97
2023-04-24T11:07:21.486Z,99894.44
2023-04-24T11:09:49.817Z,99895.88
2023-04-24T11:12:18.608Z,99896.19
2023-04-24T11:15:00.521Z,99880.66
2023-04-24T11:17:40.938Z,99896.59
2023-04-24T11:22:43.285Z,99889.97
2023-04-24T11:25:13.356Z,99890.50
2023-04-24T11:27:43.597Z,99884.69
2023-04-24T11:30:12.683Z,99887.72
2023-04-24T11:32:43.326Z,99890.88
2023-04-24T11:35:24.474Z,99890.09
2023-04-24T11:40:28.454Z,99874.84
2023-04-24T11:42:57.323Z,99885.16
2023-04-24T11:45:28.304Z,99882.88
2023-04-24T11:47:57.360Z,99881.56
2023-04-24T11:50:30.810Z,99882.63
2023-04-24T11:53:01.544Z,99887.28
2023-04-24T11:55:30.532Z,99875.50
2023-04-24T11:58:00.579Z,99872.91
2023-04-24T12:00:31.473Z,99872.66
2023-04-24T12:03:11.564Z,99874.50
2023-04-24T12:05:40.481Z,99884.88
2023-04-24T12:08:09.339Z,99876.00
2023-04-24T12:10:37.901Z,99885.38
2023-04-24T12:13:06.762Z,99879.00
2023-04-24T12:15:35.185Z,99883.84
2023-04-24T12:18:05.287Z,99886.97
2023-04-24T12:20:36.775Z,99883.50
2023-04-24T12:23:05.547Z,99882.50
2023-04-24T12:25:34.262Z,99875.31
2023-04-24T12:28:06.173Z,99865.81
2023-04-24T12:30:40.695Z,99865.22
2023-04-24T12:33:09.568Z,99874.41
2023-04-24T12:35:38.140Z,99872.41
2023-04-24T12:38:09.598Z,99861.41
2023-04-24T12:40:38.182Z,99862.25
2023-04-24T12:43:18.063Z,99850.44
2023-04-24T12:45:47.257Z,99851.56
2023-04-24T12:48:16.204Z,99850.75
2023-04-24T12:50:46.474Z,99846.91
2023-04-24T12:53:17.187Z,99838.72
2023-04-24T12:55:46.456Z,99836.72
2023-04-24T12:58:15.552Z,99836.22
2023-04-24T13:00:44.741Z,99832.72
2023-04-24T13:03:14.008Z,99834.56
2023-04-24T13:05:43.986Z,99819.38
2023-04-24T13:08:14.164Z,99827.06
2023-04-24T13:10:42.596Z,99827.38
2023-04-24T13:13:11.446Z,99817.72
2023-04-24T13:15:39.995Z,99827.72
2023-04-24T13:18:09.053Z,99823.41
2023-04-24T13:20:37.650Z,99827.06
2023-04-24T13:23:06.452Z,99826.72
2023-04-24T13:25:37.435Z,99814.69
2023-04-24T13:28:06.190Z,99820.19
2023-04-24T13:30:34.614Z,99818.69
2023-04-24T13:33:04.460Z,99820.69
2023-04-24T13:35:33.063Z,99821.53
2023-04-24T13:38:02.627Z,99816.69
2023-04-24T13:40:31.055Z,99802.69
2023-04-24T13:42:59.814Z,99801.84
2023-04-24T13:45:28.310Z,99805.69
2023-04-24T13:47:58.313Z,99804.69
2023-04-24T13:50:26.885Z,99793.00
2023-04-24T13:52:55.689Z,99798.00
2023-04-24T13:55:24.372Z,99785.00
2023-04-24T13:57:56.244Z,99773.63
2023-04-24T14:00:24.907Z,99772.13
2023-04-24T14:02:53.985Z,99770.28
2023-04-24T14:05:23.331Z,99774.63
2023-04-24T14:07:52.692Z,99784.47
2023-04-24T14:10:21.337Z,99786.47
2023-04-24T14:12:50.247Z,99778.63
2023-04-24T14:15:19.020Z,99777.97
2023-04-24T14:17:47.816Z,99794.66
2023-04-24T14:20:16.420Z,99781.84
2023-04-24T14:22:45.241Z,99789.84
2023-04-24T14:25:13.688Z,99776.66
2023-04-24T14:27:42.735Z,99789.00
2023-04-24T14:30:11.630Z,99788.34
2023-04-24T14:32:40.818Z,99790.34
2023-04-24T14:35:09.432Z,99797.84
2023-04-24T14:37:38.264Z,99792.50
2023-04-24T14:42:40.751Z,99783.47
2023-04-24T14:45:10.183Z,99789.19
2023-04-24T14:47:38.968Z,99792.00
2023-04-24T14:50:10.046Z,99794.34
2023-04-24T14:52:39.106Z,99791.34
2023-04-24T14:55:08.149Z,99796.00
2023-04-24T14:57:37.457Z,99795.66
2023-04-24T15:00:09.674Z,99794.84
2023-04-24T15:02:43.103Z,99793.50
2023-04-24T15:05:12.872Z,99800.69
2023-04-24T15:07:43.107Z,99808.03
2023-04-24T15:10:12.051Z,99820.03
2023-04-24T15:12:41.123Z,99818.03
2023-04-24T15:15:10.522Z,99811.88
2023-04-24T15:17:39.515Z,99823.38
2023-04-24T15:20:08.900Z,99820.38
2023-04-24T15:22:37.941Z,99820.38
2023-04-24T15:25:07.232Z,99823.06
2023-04-24T15:27:43.921Z,99829.22
2023-04-24T15:30:13.062Z,99835.38
2023-04-24T15:32:42.012Z,99842.72
2023-04-24T15:35:10.932Z,99854.06
2023-04-24T15:37:40.089Z,99846.56
2023-04-24T15:40:09.653Z,99844.88
2023-04-24T15:42:38.372Z,99825.69
2023-04-24T15:45:08.398Z,99840.63
2023-04-24T15:47:37.681Z,99819.09
2023-04-24T15:50:10.995Z,99790.25
2023-04-24T15:52:40.949Z,99773.94
2023-04-24T15:55:10.029Z,99761.25
2023-04-24T15:57:38.986Z,99753.75
2023-04-24T16:00:08.727Z,99758.75
2023-04-24T16:02:40.907Z,99770.97
2023-04-24T16:05:09.859Z,99777.81
2023-04-24T16:07:39.971Z,99781.47
2023-04-24T16:10:09.088Z,99782.97
2023-04-24T16:12:37.855Z,99778.50
2023-04-24T16:15:07.161Z,99784.66
2023-04-24T16:17:35.917Z,99794.50
2023-04-24T16:20:07.787Z,99792.81
2023-04-24T16:22:36.486Z,99802.66
2023-04-24T16:25:06.247Z,99803.69
2023-04-24T16:27:35.312Z,99806.88
2023-04-24T16:30:04.706Z,99812.00
2023-04-24T16:32:33.551Z,99812.19
2023-04-24T16:35:02.234Z,99824.06
2023-04-24T16:37:31.487Z,99825.91
2023-04-24T16:40:00.155Z,99835.56
2023-04-24T16:42:28.936Z,99842.25
2023-04-24T16:44:57.386Z,99848.75
2023-04-24T16:47:26.297Z,99853.09
2023-04-24T16:49:54.937Z,99853.25
2023-04-24T16:52:23.770Z,99856.09
2023-04-24T16:54:52.158Z,99852.41
2023-04-24T16:57:20.993Z,99846.72
2023-04-24T16:59:49.387Z,99841.59
2023-04-24T17:02:18.101Z,99829.06
2023-04-24T17:04:48.233Z,99822.88
2023-04-24T17:07:17.888Z,99836.56
2023-04-24T17:09:46.305Z,99833.72
2023-04-24T17:12:15.015Z,99844.91
2023-04-24T17:14:43.340Z,99853.44
2023-04-24T17:17:12.073Z,99840.41
2023-04-24T17:19:40.527Z,99854.06
2023-04-24T17:22:09.565Z,99853.25
2023-04-24T17:24:37.975Z,99860.59
2023-04-24T17:27:14.490Z,99864.28
2023-04-24T17:29:43.973Z,99874.09
2023-04-24T17:32:12.749Z,99882.31
2023-04-24T17:34:41.300Z,99881.44
2023-04-24T17:37:10.051Z,99886.13
2023-04-24T17:39:38.486Z,99896.13
2023-04-24T17:42:07.247Z,99896.13
2023-04-24T17:44:36.033Z,99905.16
2023-04-24T17:47:05.051Z,99906.97
2023-04-24T17:49:33.651Z,99918.00
2023-04-24T17:52:02.367Z,99915.47
2023-04-24T17:54:30.890Z,99927.00
2023-04-24T17:56:59.577Z,99937.81
2023-04-24T17:59:28.014Z,99947.53
2023-04-24T18:01:57.787Z,99958.38
2023-04-24T18:04:26.587Z,99960.50
2023-04-24T18:06:55.435Z,99967.69
2023-04-24T18:09:23.835Z,99978.38
2023-04-24T18:11:52.548Z,99990.22
2023-04-24T18:14:21.234Z,99995.56
2023-04-24T18:16:50.000Z,99998.91
2023-04-24T18:19:18.344Z,100006.25
2023-04-24T18:21:47.094Z,99998.06
2023-04-24T18:24:15.531Z,99986.53
2023-04-24T18:26:44.252Z,99972.53
2023-04-24T18:29:12.665Z,99973.69
2023-04-24T18:31:41.535Z,99979.16
2023-04-24T18:34:10.104Z,99984.31
2023-04-24T18:36:39.096Z,100001.75
2023-04-24T18:39:07.516Z,100004.38
2023-04-24T18:41:36.192Z,100007.00
2023-04-24T18:44:04.541Z,100007.03
2023-04-24T18:46:38.206Z,100008.41
2023-04-24T18:49:06.877Z,100026.09
2023-04-24T18:51:46.494Z,100023.94
2023-04-24T18:54:19.128Z,100028.28
2023-04-24T18:56:47.843Z,100039.50
2023-04-24T18:59:16.245Z,100041.34
2023-04-24T19:01:45.069Z,100054.81
2023-04-24T19:04:14.296Z,100059.88
2023-04-24T19:06:43.157Z,100065.47
2023-04-24T19:09:11.622Z,100068.16
2023-04-24T19:11:42.152Z,100068.28
2023-04-24T19:14:11.270Z,100074.50
2023-04-24T19:16:40.417Z,100072.13
2023-04-24T19:19:09.053Z,100073.97
2023-04-24T19:21:37.876Z,100074.78
2023-04-24T19:24:07.622Z,100075.47
2023-04-24T19:26:36.465Z,100079.84
2023-04-24T19:29:05.256Z,100082.81
2023-04-24T19:31:34.260Z,100087.84
2023-04-24T19:34:02.688Z,100084.78
2023-04-24T19:36:32.615Z,100078.09
2023-04-24T19:39:01.460Z,100076.63
2023-04-24T19:41:30.630Z,100075.13
2023-04-24T19:43:59.188Z,100081.97
2023-04-24T19:46:28.146Z,100082.50
2023-04-24T19:48:56.857Z,100072.13
2023-04-24T19:51:26.129Z,100072.28
2023-04-24T19:53:55.149Z,100070.28
2023-04-24T19:56:24.031Z,100075.47
2023-04-24T19:58:52.397Z,100073.13
2023-04-24T20:01:21.391Z,100076.78
2023-04-24T20:03:50.833Z,100076.78
2023-04-24T20:06:19.800Z,100081.06
2023-04-24T20:08:48.581Z,100082.59
2023-04-24T20:11:17.538Z,100082.91
2023-04-24T20:13:46.086Z,100083.59
2023-04-24T20:16:14.892Z,100089.59
2023-04-24T20:18:43.620Z,100092.28
2023-04-24T20:21:12.574Z,100086.75
2023-04-24T20:23:41.174Z,100087.41
2023-04-24T20:26:11.483Z,100089.75
2023-04-24T20:28:40.141Z,100093.13
2023-04-24T20:31:08.987Z,100094.25
2023-04-24T20:33:41.740Z,100090.47
2023-04-24T20:36:10.532Z,100092.78
2023-04-24T20:38:39.029Z,100095.63
2023-04-24T20:41:09.072Z,100088.91
2023-04-24T20:43:37.905Z,100083.75
2023-04-24T20:46:07.270Z,100099.94
2023-04-24T20:48:36.472Z,100095.41
2023-04-24T20:51:05.201Z,100095.41
2023-04-24T20:53:33.685Z,100097.25
2023-04-24T20:56:02.684Z,100096.72
2023-04-24T20:58:31.232Z,100097.72
2023-04-24T21:01:00.191Z,100096.06
2023-04-24T21:03:28.921Z,100097.56
2023-04-24T21:05:58.232Z,100101.91
2023-04-24T21:08:26.746Z,100099.25
2023-04-24T21:10:55.637Z,100110.75
2023-04-24T21:13:24.037Z,100108.91
2023-04-24T21:15:52.837Z,100110.59
2023-04-24T21:18:21.359Z,100109.75
2023-04-24T21:20:50.823Z,100104.25
2023-04-24T21:23:19.356Z,100097.41
2023-04-24T21:25:48.225Z,100100.91
2023-04-24T21:28:16.674Z,100097.25
2023-04-24T21:30:45.435Z,100097.41
2023-04-24T21:33:13.938Z,100090.22
2023-04-24T21:35:42.830Z,100094.06
2023-04-24T21:38:11.303Z,100090.38
2023-04-24T21:40:40.497Z,100087.72
2023-04-24T21:43:10.048Z,100092.91
2023-04-24T21:45:38.861Z,100097.41
2023-04-24T21:48:07.397Z,100105.25
2023-04-24T21:50:36.341Z,100106.25
2023-04-24T21:53:05.683Z,100098.25
2023-04-24T21:55:34.474Z,100104.41
2023-04-24T21:58:02.972Z,100096.56
2023-04-24T22:00:31.656Z,100095.72
2023-04-24T22:03:00.362Z,100090.38
2023-04-24T22:05:31.090Z,100090.72
2023-04-24T22:07:59.602Z,100096.50
2023-04-24T22:10:28.674Z,100096.97
2023-04-24T22:12:57.159Z,100098.97
2023-04-24T22:15:26.413Z,100103.47
2023-04-24T22:17:55.289Z,100107.50
2023-04-24T22:20:24.295Z,100104.28
2023-04-24T22:22:52.797Z,100120.00
2023-04-24T22:25:21.548Z,100121.66
2023-04-24T22:27:51.033Z,100126.47
2023-04-24T22:30:19.782Z,100122.97
2023-04-24T22:32:49.039Z,100118.63
2023-04-24T22:35:19.665Z,100118.31
2023-04-24T22:37:51.617Z,100105.94
2023-04-24T22:40:20.354Z,100118.78
2023-04-24T22:42:48.869Z,100121.75
2023-04-24T22:45:17.987Z,100110.78
2023-04-24T22:47:46.495Z,100116.28
2023-04-24T22:50:15.443Z,100109.25
2023-04-24T22:52:47.982Z,100113.59
2023-04-24T22:55:16.910Z,100109.94
2023-04-24T22:57:45.345Z,100111.91
2023-04-24T23:00:14.312Z,100113.75
2023-04-24T23:02:43.180Z,100117.25
2023-04-24T23:05:12.124Z,100110.69
2023-04-24T23:07:40.995Z,100114.53
2023-04-24T23:10:10.303Z,100112.53
2023-04-24T23:12:38.970Z,100102.88
2023-04-24T23:15:10.265Z,100099.00
2023-04-24T23:17:38.738Z,100110.78
2023-04-24T23:20:10.435Z,100095.78
2023-04-24T23:22:38.851Z,100100.13
2023-04-24T23:25:11.303Z,100101.41
2023-04-24T23:27:39.828Z,100099.44
2023-04-24T23:30:09.271Z,100099.44
2023-04-24T23:32:37.748Z,100089.78
2023-04-24T23:35:06.959Z,100096.09
2023-04-24T23:37:36.388Z,100095.09
2023-04-24T23:40:09.889Z,100090.16
2023-04-24T23:42:38.615Z,100096.88
2023-04-24T23:45:08.396Z,100099.34
2023-04-24T23:47:37.590Z,100099.81
2023-04-24T23:50:07.095Z,100098.16
2023-04-24T23:52:35.729Z,100091.53
2023-04-24T23:55:05.166Z,100089.84
2023-04-24T23:57:33.494Z,100088.31
